createdAt,value
2019-05-17T00:04:12.285Z,39.47
2019-05-17T00:09:17.411Z,24.60
2019-05-17T00:14:19.617Z,36.33
2019-05-17T00:19:22.340Z,29.80
2019-05-17T00:24:26.512Z,45.20
2019-05-17T00:29:29.611Z,39.13
2019-05-17T00:34:32.407Z,39.63
2019-05-17T00:39:36.654Z,38.20
2019-05-17T00:44:39.799Z,37.10
2019-05-17T00:49:42.535Z,35.50
2019-05-17T00:54:46.944Z,34.77
2019-05-17T00:59:49.871Z,42.83
2019-05-17T01:04:52.591Z,44.27
2019-05-17T01:09:56.568Z,30.03
2019-05-17T01:14:59.592Z,40.90
2019-05-17T01:20:02.341Z,33.30
2019-05-17T01:25:06.358Z,37.20
2019-05-17T01:30:10.195Z,32.67
2019-05-17T01:35:16.504Z,36.70
2019-05-17T01:40:18.554Z,34.63
2019-05-17T01:45:21.703Z,36.53
2019-05-17T01:50:30.411Z,31.77
2019-05-17T01:55:33.141Z,36.50
2019-05-17T02:00:37.616Z,37.03
2019-05-17T02:05:40.547Z,36.93
2019-05-17T02:10:43.301Z,44.20
2019-05-17T02:15:46.995Z,39.37
2019-05-17T02:20:49.966Z,36.43
2019-05-17T02:25:52.705Z,38.43
2019-05-17T02:30:55.545Z,36.80
2019-05-17T02:35:58.260Z,43.57
2019-05-17T02:41:03.301Z,53.90
2019-05-17T02:46:05.861Z,50.03
2019-05-17T02:51:08.652Z,50.17
2019-05-17T02:56:13.386Z,51.77
2019-05-17T03:01:16.036Z,45.87
2019-05-17T03:06:18.737Z,48.93
2019-05-17T03:11:22.617Z,41.27
2019-05-17T03:16:25.756Z,47.00
2019-05-17T03:21:28.500Z,46.50
2019-05-17T03:26:32.848Z,42.43
2019-05-17T03:31:42.598Z,46.43
2019-05-17T03:37:53.212Z,49.80
2019-05-17T03:42:56.225Z,49.50
2019-05-17T03:47:58.951Z,46.87
2019-05-17T03:53:02.367Z,55.97
2019-05-17T03:58:05.385Z,48.77
2019-05-17T04:03:08.105Z,55.40
2019-05-17T04:08:13.991Z,59.23
2019-05-17T04:13:15.539Z,60.27
2019-05-17T04:18:18.272Z,55.10
2019-05-17T04:23:23.219Z,60.03
2019-05-17T04:28:25.713Z,60.07
2019-05-17T04:33:28.454Z,49.53
2019-05-17T04:38:33.232Z,55.57
2019-05-17T04:43:36.249Z,55.70
2019-05-17T04:48:38.972Z,48.17
2019-05-17T04:53:43.074Z,41.27
2019-05-17T04:58:49.962Z,54.60
2019-05-17T05:03:52.484Z,47.63
2019-05-17T05:08:55.452Z,57.43
2019-05-17T05:14:02.459Z,54.93
2019-05-17T05:19:04.105Z,46.00
2019-05-17T05:24:06.824Z,49.87
2019-05-17T05:29:09.529Z,38.53
2019-05-17T05:34:12.446Z,42.90
2019-05-17T05:39:15.271Z,38.27
2019-05-17T05:44:18.018Z,33.63
2019-05-17T05:49:21.722Z,33.67
2019-05-17T05:54:24.750Z,31.60
2019-05-17T05:59:27.467Z,30.73
2019-05-17T06:04:31.830Z,27.80
2019-05-17T06:09:35.578Z,32.83
2019-05-17T06:14:38.286Z,23.87
2019-05-17T06:19:42.209Z,23.30
2019-05-17T06:24:45.116Z,20.73
2019-05-17T06:29:47.829Z,21.10
2019-05-17T06:34:51.502Z,16.37
2019-05-17T06:39:54.479Z,18.43
2019-05-17T06:44:57.236Z,14.57
2019-05-17T06:50:02.836Z,13.33
2019-05-17T06:55:05.983Z,16.07
2019-05-17T07:00:15.688Z,13.70
2019-05-17T07:05:20.079Z,11.87
2019-05-17T07:10:23.048Z,13.23
2019-05-17T07:15:25.781Z,12.50
2019-05-17T07:20:29.946Z,13.60
2019-05-17T07:25:32.817Z,11.10
2019-05-17T07:30:36.682Z,10.20
2019-05-17T07:35:40.679Z,13.20
2019-05-17T07:40:44.055Z,14.63
2019-05-17T07:45:49.623Z,12.87
2019-05-17T07:50:52.946Z,12.20
2019-05-17T07:55:56.117Z,14.57
2019-05-17T08:01:02.480Z,10.17
2019-05-17T08:06:05.992Z,11.33
2019-05-17T08:11:10.635Z,12.23
2019-05-17T08:16:14.598Z,13.53
2019-05-17T08:21:19.866Z,9.33
2019-05-17T08:26:23.419Z,10.00
2019-05-17T08:31:26.643Z,10.27
2019-05-17T08:36:30.025Z,9.87
2019-05-17T08:41:32.990Z,9.40
2019-05-17T08:46:35.719Z,11.07
2019-05-17T08:51:39.755Z,9.57
2019-05-17T08:56:43.155Z,9.07
2019-05-17T09:01:46.850Z,9.57
2019-05-17T09:06:50.669Z,7.60
2019-05-17T09:11:53.908Z,6.33
2019-05-17T09:16:57.024Z,8.50
2019-05-17T09:22:01.570Z,8.27
2019-05-17T09:27:05.054Z,9.33
2019-05-17T09:32:09.524Z,9.97
2019-05-17T09:37:16.797Z,9.50
2019-05-17T09:42:20.769Z,9.57
2019-05-17T09:53:10.700Z,8.97
2019-05-17T09:58:14.626Z,11.50
2019-05-17T10:03:23.240Z,9.30
2019-05-17T10:08:23.179Z,13.53
2019-05-17T10:13:26.760Z,12.63
2019-05-17T10:18:30.484Z,12.90
2019-05-17T10:23:33.714Z,10.57
2019-05-17T10:28:40.929Z,10.87
2019-05-17T10:33:44.018Z,9.13
2019-05-17T10:38:50.132Z,14.57
2019-05-17T10:43:52.573Z,12.63
2019-05-17T10:48:55.485Z,13.37
2019-05-17T10:53:59.971Z,11.57
2019-05-17T10:59:03.306Z,11.80
2019-05-17T11:04:06.624Z,13.07
2019-05-17T11:09:10.396Z,12.90
2019-05-17T11:14:13.250Z,13.20
2019-05-17T11:19:15.984Z,12.43
2019-05-17T11:24:18.734Z,13.43
2019-05-17T11:29:21.419Z,16.80
2019-05-17T11:34:25.645Z,13.67
2019-05-17T11:39:28.576Z,15.97
2019-05-17T11:44:32.219Z,14.57
2019-05-17T11:49:39.122Z,15.63
2019-05-17T11:54:43.347Z,12.97
2019-05-17T11:59:47.026Z,14.87
2019-05-17T12:04:50.263Z,13.50
2019-05-17T12:09:53.872Z,14.60
2019-05-17T12:14:58.098Z,14.00
2019-05-17T12:20:02.503Z,21.70
2019-05-17T12:25:06.209Z,18.60
2019-05-17T12:30:10.630Z,15.87
2019-05-17T12:35:13.423Z,12.03
2019-05-17T12:40:16.247Z,12.50
2019-05-17T12:45:18.976Z,16.90
2019-05-17T12:50:21.678Z,18.03
2019-05-17T12:55:24.380Z,20.87
2019-05-17T13:00:27.078Z,15.27
2019-05-17T13:05:29.770Z,13.93
2019-05-17T13:10:32.470Z,21.27
2019-05-17T13:15:35.185Z,16.30
2019-05-17T13:20:37.900Z,16.50
2019-05-17T13:25:48.107Z,19.17
2019-05-17T13:30:51.372Z,19.77
2019-05-17T13:35:54.216Z,15.70
2019-05-17T13:40:58.982Z,19.90
2019-05-17T13:46:08.577Z,17.60
2019-05-17T13:51:11.271Z,14.93
2019-05-17T13:56:14.013Z,18.23
2019-05-17T14:01:17.130Z,18.97
2019-05-17T14:06:19.836Z,18.33
2019-05-17T14:11:22.653Z,17.23
2019-05-17T14:16:26.567Z,13.93
2019-05-17T14:21:31.041Z,15.00
2019-05-17T14:26:33.735Z,17.30
2019-05-17T14:31:41.183Z,15.20
2019-05-17T14:36:46.923Z,15.30
2019-05-17T14:41:49.717Z,15.30
2019-05-17T14:46:52.468Z,13.00
2019-05-17T14:51:55.169Z,11.40
2019-05-17T14:56:57.853Z,18.30
2019-05-17T15:02:00.575Z,12.40
2019-05-17T15:07:04.898Z,16.00
2019-05-17T15:12:07.653Z,16.80
2019-05-17T15:17:10.340Z,15.80
2019-05-17T15:22:17.198Z,14.60
2019-05-17T15:27:20.043Z,15.03
2019-05-17T15:32:23.616Z,15.57
2019-05-17T15:37:26.304Z,16.73
2019-05-17T15:42:43.620Z,13.70
2019-05-17T15:47:38.610Z,14.20
2019-05-17T15:53:03.398Z,15.30
2019-05-17T15:58:15.916Z,14.73
2019-05-17T16:03:25.262Z,17.27
2019-05-17T16:08:31.804Z,16.57
2019-05-17T16:13:39.311Z,16.07
2019-05-17T16:18:42.176Z,18.53
2019-05-17T16:23:45.406Z,17.60
2019-05-17T16:29:02.482Z,15.30
2019-05-17T16:34:05.175Z,15.60
2019-05-17T16:39:08.567Z,16.00
2019-05-17T16:44:14.240Z,14.70
2019-05-17T16:49:16.023Z,14.67
2019-05-17T16:54:18.776Z,16.53
2019-05-17T16:59:21.460Z,21.80
2019-05-17T17:04:24.149Z,15.97
2019-05-17T17:09:26.860Z,16.27
2019-05-17T17:14:29.535Z,14.70
2019-05-17T17:19:32.260Z,16.70
2019-05-17T17:24:34.950Z,14.77
2019-05-17T17:29:37.635Z,13.60
2019-05-17T17:34:40.323Z,12.63
2019-05-17T17:39:43.101Z,12.57
2019-05-17T17:44:45.861Z,12.90
2019-05-17T17:49:48.554Z,11.50
2019-05-17T17:54:51.256Z,15.70
2019-05-17T17:59:55.609Z,21.23
2019-05-17T18:04:59.254Z,13.30
2019-05-17T18:10:02.035Z,13.20
2019-05-17T18:15:09.656Z,16.53
2019-05-17T18:20:12.486Z,13.77
2019-05-17T18:25:15.271Z,13.80
2019-05-17T18:30:18.062Z,13.40
2019-05-17T18:35:20.736Z,11.37
2019-05-17T18:40:23.481Z,11.57
2019-05-17T18:45:26.466Z,11.90
2019-05-17T18:50:29.160Z,12.53
2019-05-17T18:55:32.386Z,14.10
2019-05-17T19:00:35.173Z,10.80
2019-05-17T19:05:37.879Z,15.03
2019-05-17T19:10:40.655Z,15.50
2019-05-17T19:15:43.981Z,16.93
2019-05-17T19:20:46.674Z,19.20
2019-05-17T19:25:49.369Z,17.73
2019-05-17T19:30:52.055Z,14.37
2019-05-17T19:35:54.754Z,13.60
2019-05-17T19:40:57.457Z,14.90
2019-05-17T19:46:00.346Z,14.83
2019-05-17T19:51:03.107Z,14.83
2019-05-17T19:56:05.849Z,14.30
2019-05-17T20:01:08.544Z,15.10
2019-05-17T20:06:11.293Z,13.70
2019-05-17T20:11:14.049Z,15.87
2019-05-17T20:16:16.749Z,16.80
2019-05-17T20:21:19.437Z,19.30
2019-05-17T20:26:22.133Z,14.87
2019-05-17T20:31:24.849Z,26.63
2019-05-17T20:36:27.544Z,17.00
2019-05-17T20:41:30.255Z,16.17
2019-05-17T20:46:33.000Z,16.73
2019-05-17T20:51:35.722Z,16.40
2019-05-17T20:56:38.461Z,16.20
2019-05-17T21:01:41.210Z,13.57
2019-05-17T21:06:43.936Z,14.80
2019-05-17T21:11:46.658Z,16.77
2019-05-17T21:16:57.311Z,30.20
2019-05-17T21:22:04.987Z,15.30
2019-05-17T21:27:07.866Z,15.67
2019-05-17T21:32:10.562Z,19.17
2019-05-17T21:37:13.254Z,22.20
2019-05-17T21:42:15.939Z,20.63
2019-05-17T21:47:18.668Z,21.60
2019-05-17T21:52:21.447Z,27.30
2019-05-17T21:57:24.154Z,21.07
2019-05-17T22:02:26.858Z,20.17
2019-05-17T22:07:29.570Z,18.47
2019-05-17T22:12:32.339Z,16.73
2019-05-17T22:17:35.027Z,20.47
2019-05-17T22:22:37.747Z,21.50
2019-05-17T22:27:40.426Z,19.77
2019-05-17T22:32:43.400Z,20.47
2019-05-17T22:37:46.092Z,22.97
2019-05-17T22:42:48.879Z,22.80
2019-05-17T22:47:51.595Z,19.97
2019-05-17T22:52:54.309Z,26.23
2019-05-17T22:57:57.049Z,26.67
2019-05-17T23:02:59.770Z,29.70
2019-05-17T23:08:02.507Z,28.40
2019-05-17T23:13:05.298Z,30.90
2019-05-17T23:18:08.084Z,34.30
2019-05-17T23:23:10.813Z,31.07
2019-05-17T23:28:13.522Z,29.37
2019-05-17T23:33:16.235Z,33.20
2019-05-17T23:38:18.919Z,34.00
2019-05-17T23:43:21.625Z,35.87
2019-05-17T23:48:24.363Z,35.67
2019-05-17T23:53:27.093Z,43.13
2019-05-17T23:58:29.801Z,43.13
